Time;durP1;ratioP1;P1;durP2;ratioP2;P2;SDS_P1;SDS_P2;PMS_P1;PMS_P2;Temp;Humidity;BMP_temperature;BMP_pressure;BME280_temperature;BME280_humidity;BME280_pressure;Samples;Min_cycle;Max_cycle;Signal;HPM_P1;HPM_P2
2022/08/11 00:01:53;;;;;;;4.60;2.30;;;;;;;17.01;53.31;98728.97;4924125;29;20048;-73
2022/08/11 00:04:24;;;;;;;5.07;2.33;;;;;;;16.92;53.15;98724.75;4921054;29;20047;-73
2022/08/11 00:06:53;;;;;;;3.45;2.03;;;;;;;16.86;53.40;98722.84;4919188;29;20066;-73
2022/08/11 00:09:31;;;;;;;5.97;2.90;;;;;;;16.83;54.17;98723.22;4926864;29;20054;-73
2022/08/11 00:12:12;;;;;;;4.97;2.40;;;;;;;16.72;53.48;98729.84;4930363;29;20054;-73
2022/08/11 00:14:39;;;;;;;4.00;2.78;;;;;;;16.70;54.96;98723.03;4950210;28;20056;-73
2022/08/11 00:17:08;;;;;;;4.22;2.30;;;;;;;16.60;54.76;98721.44;4922345;29;20062;-73
2022/08/11 00:19:44;;;;;;;4.57;2.25;;;;;;;16.56;55.37;98727.34;4922314;29;20044;-73
2022/08/11 00:22:32;;;;;;;4.43;2.55;;;;;;;16.57;55.06;98721.81;4918537;29;20059;-73
2022/08/11 00:25:08;;;;;;;4.47;2.45;;;;;;;16.60;54.62;98723.31;4919429;29;20476;-73
2022/08/11 00:27:37;;;;;;;3.58;2.70;;;;;;;16.65;54.28;98720.91;4926042;29;20127;-73
2022/08/11 00:30:06;;;;;;;5.32;2.90;;;;;;;16.73;54.70;98722.66;4924529;29;20040;-72
2022/08/11 00:32:33;;;;;;;4.20;2.17;;;;;;;16.64;54.44;98722.75;4917483;29;20048;-73
2022/08/11 00:35:00;;;;;;;5.55;2.50;;;;;;;16.57;54.98;98716.47;4940065;28;20066;-73
2022/08/11 00:37:48;;;;;;;3.65;2.65;;;;;;;16.55;53.67;98726.53;4926238;29;20055;-73
2022/08/11 00:40:42;;;;;;;5.18;2.85;;;;;;;16.54;55.92;98730.22;4914985;29;20119;-73
2022/08/11 00:43:36;;;;;;;2.92;2.45;;;;;;;16.51;53.37;98735.06;4922030;29;20063;-73
2022/08/11 00:46:27;;;;;;;4.47;2.47;;;;;;;16.55;53.50;98731.03;4926610;29;20055;-73
2022/08/11 00:49:05;;;;;;;3.55;2.40;;;;;;;16.73;53.28;98728.81;4926858;29;20507;-73
2022/08/11 00:51:40;;;;;;;3.33;2.35;;;;;;;17.00;51.61;98729.97;4922045;29;20048;-73
2022/08/11 00:55:00;;;;;;;3.60;2.17;;;;;;;17.14;52.30;98724.78;4918827;29;20139;-73
2022/08/11 00:57:45;;;;;;;3.88;2.63;;;;;;;17.14;52.05;98730.13;4925308;29;20066;-73
2022/08/11 01:00:14;;;;;;;3.38;2.20;;;;;;;17.20;51.80;98721.38;4919229;29;20050;-73
2022/08/11 01:03:09;;;;;;;3.08;2.05;;;;;;;17.23;51.38;98719.13;4937979;28;20454;-73
2022/08/11 01:05:50;;;;;;;4.75;2.58;;;;;;;17.25;51.00;98722.44;4941519;28;20517;-73
2022/08/11 01:08:33;;;;;;;4.38;2.20;;;;;;;17.13;52.31;98723.13;4920522;29;20050;-73
2022/08/11 01:11:19;;;;;;;;;;;;;;;17.02;52.69;98727.13;4920026;29;20075;-73
2022/08/11 01:14:11;;;;;;;6.85;2.30;;;;;;;16.94;53.66;98721.91;4950431;28;19951;-73
2022/08/11 01:17:09;;;;;;;3.15;2.30;;;;;;;16.88;53.28;98728.81;4929602;29;20054;-73
2022/08/11 01:20:17;;;;;;;5.17;2.73;;;;;;;16.88;53.49;98715.47;4918320;29;20114;-73
2022/08/11 01:23:15;;;;;;;2.92;2.47;;;;;;;16.86;53.11;98728.19;4915837;29;20299;-74
2022/08/11 01:26:17;;;;;;;4.35;2.58;;;;;;;16.83;53.36;98726.72;4925228;29;20127;-74
2022/08/11 01:29:14;;;;;;;4.85;2.85;;;;;;;16.78;52.21;98726.44;4919879;29;20063;-73
2022/08/11 01:31:43;;;;;;;4.22;2.40;;;;;;;16.76;52.88;98720.41;4920433;29;20044;-73
2022/08/11 01:34:25;;;;;;;4.30;2.65;;;;;;;16.75;53.10;98732.13;4924781;29;20062;-74
2022/08/11 01:37:17;;;;;;;4.20;3.47;;;;;;;16.65;53.44;98720.91;4917100;29;20063;-74
2022/08/11 01:40:10;;;;;;;7.35;2.72;;;;;;;16.60;53.97;98723.31;4925702;29;20681;-73
2022/08/11 01:45:59;;;;;;;5.20;2.97;;;;;;;16.42;53.46;98723.66;4916383;29;20052;-73
2022/08/11 01:48:47;;;;;;;3.88;2.67;;;;;;;16.41;54.62;98717.50;4915476;29;20063;-73
2022/08/11 01:51:22;;;;;;;3.70;3.10;;;;;;;16.35;53.94;98712.91;4925395;29;20035;-73
2022/08/11 01:54:10;;;;;;;3.72;2.72;;;;;;;16.28;55.04;98727.19;4930261;29;20051;-74
2022/08/11 01:56:57;;;;;;;3.17;2.63;;;;;;;16.29;54.47;98728.81;4926077;29;20053;-74
2022/08/11 01:59:28;;;;;;;3.83;2.63;;;;;;;16.38;54.81;98725.91;4926745;29;20051;-74
2022/08/11 02:02:19;;;;;;;4.50;3.25;;;;;;;16.52;55.86;98713.53;4919088;29;20051;-73
2022/08/11 02:04:46;;;;;;;4.20;2.67;;;;;;;16.33;54.40;98706.94;4917123;29;20503;-73
2022/08/11 02:07:30;;;;;;;5.07;3.10;;;;;;;16.27;54.40;98698.81;4928461;29;20302;-73
2022/08/11 02:13:29;;;;;;;6.03;3.42;;;;;;;16.10;54.75;98715.00;4924782;29;20055;-73
2022/08/11 02:16:26;;;;;;;3.33;2.80;;;;;;;16.16;54.67;98716.13;4922178;29;20051;-74
2022/08/11 02:25:37;;;;;;;3.42;3.13;;;;;;;16.01;55.30;98705.44;4930433;28;20405;-74
2022/08/11 02:28:33;;;;;;;5.35;3.38;;;;;;;15.80;55.95;98712.31;4923686;29;20670;-74
2022/08/11 02:34:38;;;;;;;5.32;3.25;;;;;;;15.67;56.74;98708.56;4939342;28;20070;-74
2022/08/11 02:37:23;;;;;;;6.63;3.33;;;;;;;15.67;56.26;98704.06;4916981;29;20046;-74
2022/08/11 02:40:09;;;;;;;5.15;3.25;;;;;;;15.73;56.16;98699.88;4917760;29;20566;-74
2022/08/11 02:42:44;;;;;;;4.30;3.50;;;;;;;15.62;56.83;98697.63;4921364;29;20422;-74
2022/08/11 02:45:27;;;;;;;5.68;3.38;;;;;;;15.56;58.00;98699.13;4921618;29;20071;-73
2022/08/11 02:51:11;;;;;;;4.88;3.67;;;;;;;15.49;58.31;98698.22;4925757;29;19931;-74
2022/08/11 02:54:06;;;;;;;3.65;3.20;;;;;;;15.52;58.46;98703.19;4932171;28;20062;-73
2022/08/11 02:56:46;;;;;;;4.45;3.00;;;;;;;15.48;57.87;98702.72;4934765;29;20059;-73
2022/08/11 03:02:31;;;;;;;4.00;3.25;;;;;;;15.52;56.24;98705.84;4924693;29;20107;-73
2022/08/11 03:04:58;;;;;;;3.55;3.22;;;;;;;15.53;57.66;98699.50;4936897;28;20548;-74
2022/08/11 03:08:03;;;;;;;4.53;3.40;;;;;;;15.48;58.63;98705.38;4926419;29;20044;-74
2022/08/11 03:16:43;;;;;;;4.07;3.33;;;;;;;15.43;58.21;98705.09;4917824;29;20044;-74
2022/08/11 03:16:47;;;;;;;4.15;3.15;;;;;;;15.35;58.28;98705.97;4923483;29;20575;-74
2022/08/11 03:19:17;;;;;;;3.47;2.90;;;;;;;15.42;58.47;98706.09;4921090;29;20520;-74
2022/08/11 03:21:55;;;;;;;3.15;2.58;;;;;;;15.44;57.57;98717.41;4923043;29;20482;-75
2022/08/11 03:24:52;;;;;;;4.32;3.47;;;;;;;15.45;57.57;98710.22;4923592;28;20055;-74
2022/08/11 03:27:52;;;;;;;5.68;3.78;;;;;;;15.40;58.81;98713.41;4920962;29;20051;-74
2022/08/11 03:30:34;;;;;;;3.65;3.25;;;;;;;15.43;59.13;98707.75;4929174;29;20047;-74
2022/08/11 03:36:40;;;;;;;3.20;2.90;;;;;;;15.34;57.57;98714.97;4921393;29;20044;-75
2022/08/11 03:39:37;;;;;;;5.00;2.92;;;;;;;15.37;58.31;98714.59;4925138;29;20044;-75
2022/08/11 03:42:42;;;;;;;4.90;2.95;;;;;;;15.41;58.21;98716.94;4919083;29;20914;-74
2022/08/11 03:45:27;;;;;;;3.47;3.10;;;;;;;15.46;58.29;98720.72;4919851;29;20405;-74
2022/08/11 03:48:18;;;;;;;3.28;2.97;;;;;;;15.51;58.10;98722.88;4924458;29;20051;-74
2022/08/11 03:51:19;;;;;;;4.25;2.75;;;;;;;15.55;57.32;98718.81;4926286;29;20092;-74
2022/08/11 03:54:05;;;;;;;4.57;3.20;;;;;;;15.55;56.34;98721.50;4930147;29;20043;-75
2022/08/11 03:56:47;;;;;;;7.35;3.17;;;;;;;15.60;57.26;98724.44;4927447;29;20043;-74
2022/08/11 03:59:55;;;;;;;5.72;2.88;;;;;;;15.69;56.85;98720.75;4914578;29;20052;-74
2022/08/11 04:02:45;;;;;;;4.28;3.17;;;;;;;15.71;57.24;98720.56;4923648;29;20047;-75
2022/08/11 04:05:30;;;;;;;4.38;2.92;;;;;;;15.65;56.69;98711.41;4928313;29;20039;-74
2022/08/11 04:08:18;;;;;;;5.88;3.25;;;;;;;15.59;56.91;98720.13;4918283;29;20059;-75
2022/08/11 04:10:45;;;;;;;4.35;2.67;;;;;;;15.56;57.05;98715.13;4917314;29;20050;-75
2022/08/11 04:17:33;;;;;;;5.60;3.90;;;;;;;15.32;58.89;98721.47;4862441;29;20049;-74
2022/08/11 04:20:18;;;;;;;4.55;3.50;;;;;;;15.30;59.23;98720.84;4925776;29;20040;-75
2022/08/11 04:23:06;;;;;;;5.18;3.55;;;;;;;15.25;59.07;98724.03;4926656;29;20189;-75
2022/08/11 04:25:52;;;;;;;5.95;3.45;;;;;;;15.17;59.94;98725.94;4928545;29;20398;-75
2022/08/11 04:28:43;;;;;;;7.13;3.38;;;;;;;15.12;60.16;98721.13;4922494;29;20044;-75
2022/08/11 04:31:36;;;;;;;7.43;3.47;;;;;;;15.15;59.81;98724.28;4921116;29;20083;-75
2022/08/11 04:34:23;;;;;;;3.97;3.03;;;;;;;15.27;59.87;98727.38;4920158;29;20566;-75
2022/08/11 04:40:22;;;;;;;4.55;3.15;;;;;;;15.42;59.20;98726.59;4925110;29;20483;-75
2022/08/11 04:43:19;;;;;;;4.35;3.13;;;;;;;15.53;59.02;98731.50;4926185;29;20048;-75
2022/08/11 04:46:09;;;;;;;5.65;3.33;;;;;;;15.67;59.38;98732.56;4922153;29;20054;-75
2022/08/11 05:01:40;;;;;;;5.38;3.53;;;;;;;15.88;57.35;98738.09;4917010;29;20040;-74
2022/08/11 05:07:48;;;;;;;6.32;3.28;;;;;;;16.13;55.94;98740.50;4918742;29;20062;-75
2022/08/11 05:10:24;;;;;;;6.05;3.42;;;;;;;16.17;56.41;98736.47;4919877;29;20122;-75
2022/08/11 05:12:56;;;;;;;5.93;3.20;;;;;;;16.18;56.43;98738.94;4926033;29;20086;-75
2022/08/11 05:36:20;;;;;;;3.60;2.92;;;;;;;16.88;55.24;98732.31;4934717;28;20406;-75
2022/08/11 05:58:37;;;;;;;4.65;3.45;;;;;;;17.95;53.11;98746.75;4919159;29;20074;-75
2022/08/11 06:01:09;;;;;;;5.55;3.15;;;;;;;17.98;54.14;98741.88;4927858;29;20399;-75
2022/08/11 06:04:12;;;;;;;4.10;2.88;;;;;;;17.96;53.86;98737.72;4925996;29;20044;-75
2022/08/11 06:06:25;;;;;;;9.18;3.45;;;;;;;17.96;53.29;98746.59;4924804;29;20054;-75
2022/08/11 06:08:55;;;;;;;5.07;2.85;;;;;;;18.06;53.12;98740.03;4922599;29;20062;-74
2022/08/11 06:11:23;;;;;;;6.03;3.50;;;;;;;18.08;52.41;98744.19;4922216;28;20052;-75
2022/08/11 06:14:10;;;;;;;8.15;3.08;;;;;;;18.23;53.60;98730.69;4916336;29;20054;-75
2022/08/11 06:16:37;;;;;;;9.15;3.33;;;;;;;18.31;53.43;98735.91;4922808;29;20055;-74
2022/08/11 06:19:04;;;;;;;8.38;3.20;;;;;;;18.46;50.57;98740.31;4920024;29;20052;-74
2022/08/11 06:21:33;;;;;;;4.05;3.28;;;;;;;18.56;52.06;98738.94;4918060;29;20072;-75
2022/08/11 06:24:02;;;;;;;5.05;3.38;;;;;;;18.61;52.61;98743.69;4928039;29;20044;-75
2022/08/11 06:26:30;;;;;;;5.07;2.75;;;;;;;18.75;49.87;98740.09;4918183;29;20557;-75
2022/08/11 06:28:58;;;;;;;4.97;2.90;;;;;;;18.87;49.55;98734.97;4922077;29;20391;-75
2022/08/11 06:31:25;;;;;;;11.88;3.10;;;;;;;18.92;52.44;98737.88;4922405;29;20325;-74
2022/08/11 06:34:06;;;;;;;5.63;3.38;;;;;;;18.97;49.64;98731.94;4934379;29;20047;-75
2022/08/11 06:36:49;;;;;;;4.88;3.15;;;;;;;19.19;49.25;98741.47;4926538;29;20048;-74
2022/08/11 06:39:26;;;;;;;5.97;3.00;;;;;;;19.45;48.74;98750.63;4924004;29;20099;-75
2022/08/11 06:42:06;;;;;;;8.43;2.85;;;;;;;19.50;48.79;98742.78;4926652;29;20502;-74
2022/08/11 06:44:42;;;;;;;4.20;2.80;;;;;;;19.51;48.89;98742.59;4914361;29;20043;-74
2022/08/11 06:47:11;;;;;;;5.97;3.35;;;;;;;19.64;47.64;98735.56;4926660;29;20070;-74
2022/08/11 06:52:31;;;;;;;;;;;;;;;19.81;47.43;98738.72;4926720;29;20411;-74
2022/08/11 06:55:10;;;;;;;3.65;3.25;;;;;;;19.76;50.34;98743.88;4926764;29;19926;-74
2022/08/11 07:00:44;;;;;;;8.88;2.95;;;;;;;19.99;49.00;98732.75;4924487;29;20545;-74
2022/08/11 07:03:12;;;;;;;5.03;3.10;;;;;;;20.20;47.96;98731.69;4916913;29;20054;-74
2022/08/11 07:05:52;;;;;;;4.55;3.08;;;;;;;20.33;46.96;98742.41;4923115;29;20048;-74
2022/08/11 07:17:20;;;;;;;4.95;2.80;;;;;;;20.81;46.27;98739.41;4924692;29;20074;-74
2022/08/11 07:31:00;;;;;;;7.43;3.13;;;;;;;21.12;44.80;98727.06;4932476;29;20047;-74
2022/08/11 07:33:40;;;;;;;4.57;3.10;;;;;;;21.38;44.07;98729.63;4916681;29;20046;-74
2022/08/11 07:36:28;;;;;;;3.30;2.78;;;;;;;21.48;46.13;98719.22;4918886;29;20499;-74
2022/08/11 07:38:56;;;;;;;3.85;2.63;;;;;;;21.57;44.23;98724.31;4919692;29;20050;-75
2022/08/11 07:41:24;;;;;;;3.17;2.88;;;;;;;21.57;44.38;98718.94;4918237;29;20043;-74
2022/08/11 07:43:52;;;;;;;4.85;2.95;;;;;;;21.37;46.21;98721.72;4925256;29;20093;-74
2022/08/11 07:54:39;;;;;;;3.08;2.72;;;;;;;21.56;43.92;98717.28;4917704;29;20075;-74
2022/08/11 08:20:02;;;;;;;4.97;2.42;;;;;;;24.14;37.32;98698.13;4924117;29;20052;-73
2022/08/11 08:22:36;;;;;;;6.10;2.40;;;;;;;24.33;36.34;98699.66;4918724;29;20056;-72
2022/08/11 08:25:07;;;;;;;3.60;2.25;;;;;;;24.60;36.64;98700.00;4921768;29;20075;-73
2022/08/11 08:27:34;;;;;;;4.22;2.17;;;;;;;24.52;36.32;98698.47;4933457;28;20087;-74
2022/08/11 08:32:50;;;;;;;16.15;3.60;;;;;;;25.06;34.92;98705.50;4924659;29;20042;-74
2022/08/11 08:35:18;;;;;;;2.88;2.38;;;;;;;25.04;34.69;98702.19;4928962;29;20059;-73
2022/08/11 08:37:44;;;;;;;5.30;2.70;;;;;;;25.14;33.11;98699.69;4921116;29;20051;-74
2022/08/11 08:40:13;;;;;;;4.53;1.90;;;;;;;25.10;33.99;98696.66;4923294;29;20095;-73
2022/08/11 08:42:50;;;;;;;7.00;2.78;;;;;;;25.14;33.01;98703.22;4912075;29;20150;-72
2022/08/11 08:45:17;;;;;;;2.67;2.20;;;;;;;25.41;33.19;98702.66;4936404;28;20051;-73
2022/08/11 08:47:59;;;;;;;3.38;2.38;;;;;;;25.61;33.53;98711.13;4920543;29;20503;-73
2022/08/11 08:51:33;;;;;;;3.20;2.45;;;;;;;25.60;33.91;98695.13;4922566;29;20138;-72
2022/08/11 08:53:30;;;;;;;6.45;2.80;;;;;;;25.68;32.30;98694.72;4924884;29;20104;-73
2022/08/11 08:55:59;;;;;;;3.67;2.58;;;;;;;25.68;32.29;98700.13;4917633;29;20052;-73
2022/08/11 08:58:26;;;;;;;3.28;2.10;;;;;;;25.80;33.10;98691.91;4922771;29;20052;-72
2022/08/11 09:00:53;;;;;;;2.03;1.83;;;;;;;25.71;34.97;98696.13;4920369;29;20434;-72
2022/08/11 09:03:21;;;;;;;6.18;2.53;;;;;;;26.08;33.21;98696.44;4916963;29;20062;-73
2022/08/11 09:06:08;;;;;;;5.97;2.50;;;;;;;26.20;31.59;98686.31;4923853;29;20048;-72
2022/08/11 09:08:35;;;;;;;5.78;2.13;;;;;;;26.14;32.18;98692.72;4922811;29;20048;-73
2022/08/11 09:13:49;;;;;;;5.05;2.33;;;;;;;26.28;31.67;98702.16;4921972;29;20046;-73
2022/08/11 09:16:33;;;;;;;2.28;2.00;;;;;;;26.55;31.54;98704.19;4920458;29;20072;-73
2022/08/11 09:19:00;;;;;;;3.42;2.28;;;;;;;26.62;31.13;98702.09;4917635;29;20063;-72
2022/08/11 09:21:27;;;;;;;3.08;2.40;;;;;;;26.49;31.65;98702.44;4905361;29;20145;-73
2022/08/11 09:27:04;;;;;;;2.38;1.60;;;;;;;26.65;30.14;98696.16;4924054;29;20054;-73
2022/08/11 09:29:31;;;;;;;3.53;2.20;;;;;;;26.26;30.13;98690.75;4920610;29;20047;-72
2022/08/11 09:31:58;;;;;;;3.25;2.10;;;;;;;26.73;30.89;98692.19;4924704;29;20580;-73
2022/08/11 09:34:26;;;;;;;3.13;2.22;;;;;;;27.11;29.48;98693.97;4923430;29;20044;-73
2022/08/11 09:40:27;;;;;;;2.25;1.98;;;;;;;27.16;31.20;98698.63;4885917;29;20126;-73
2022/08/11 09:45:50;;;;;;;5.53;1.70;;;;;;;27.35;29.88;98690.97;4925273;28;20071;-73
2022/08/11 09:48:19;;;;;;;3.15;2.08;;;;;;;27.30;28.98;98685.50;4922897;29;20075;-73
2022/08/11 09:50:54;;;;;;;1.70;1.60;;;;;;;27.22;29.88;98685.94;4922348;29;20054;-72
2022/08/11 09:53:21;;;;;;;4.88;2.10;;;;;;;27.20;29.58;98690.81;4917223;29;20052;-73
2022/08/11 09:58:55;;;;;;;2.80;1.90;;;;;;;27.28;28.26;98688.47;4925406;29;20085;-73
2022/08/11 10:01:30;;;;;;;5.20;2.25;;;;;;;27.18;30.02;98682.13;4925774;29;20036;-73
2022/08/11 10:04:18;;;;;;;2.45;1.77;;;;;;;27.07;28.23;98681.19;4955873;28;20103;-73
2022/08/11 10:07:00;;;;;;;2.85;2.10;;;;;;;27.36;29.63;98679.03;4925387;29;20082;-72
2022/08/11 10:09:48;;;;;;;2.22;1.77;;;;;;;27.03;29.65;98674.59;4922142;29;20143;-72
2022/08/11 10:12:27;;;;;;;2.22;2.03;;;;;;;26.72;30.09;98668.81;4924684;29;20698;-72
2022/08/11 10:20:34;;;;;;;3.17;1.98;;;;;;;26.91;29.98;98672.88;4927365;29;20418;-73
2022/08/11 10:28:34;;;;;;;5.90;1.90;;;;;;;26.74;29.77;98669.41;4911166;29;20058;-72
2022/08/11 10:34:24;;;;;;;4.97;1.92;;;;;;;26.68;29.80;98668.53;4925916;29;20048;-73
2022/08/11 10:36:54;;;;;;;4.22;1.52;;;;;;;26.80;28.69;98659.41;4930451;29;20055;-73
2022/08/11 10:39:20;;;;;;;3.25;1.92;;;;;;;26.50;29.04;98658.75;4928235;29;21190;-73
2022/08/11 10:44:46;;;;;;;2.22;1.80;;;;;;;26.50;28.46;98655.25;4927353;29;20048;-72
2022/08/11 11:01:10;;;;;;;2.85;1.70;;;;;;;26.78;28.53;98624.41;4928047;29;20046;-72
2022/08/11 11:03:37;;;;;;;2.67;1.67;;;;;;;26.85;27.50;98625.00;4922295;29;20388;-73
2022/08/11 11:06:11;;;;;;;3.20;1.70;;;;;;;26.74;29.26;98619.72;4916899;29;20078;-71
2022/08/11 11:08:59;;;;;;;6.82;1.60;;;;;;;26.80;27.62;98619.50;4918352;29;20372;-72
2022/08/11 11:20:22;;;;;;;3.72;1.80;;;;;;;26.21;30.69;98625.56;4919713;29;20048;-72
2022/08/11 11:23:28;;;;;;;5.45;1.70;;;;;;;26.15;28.95;98610.31;4920050;29;20075;-72
2022/08/11 11:26:10;;;;;;;3.88;1.85;;;;;;;26.51;28.63;98616.16;4922086;29;20053;-72
2022/08/11 11:29:07;;;;;;;3.75;1.42;;;;;;;26.75;27.75;98602.34;4937290;28;20098;-72
2022/08/11 11:31:58;;;;;;;2.75;1.90;;;;;;;26.79;28.70;98603.50;4919991;29;20125;-73
2022/08/11 11:34:37;;;;;;;2.38;1.65;;;;;;;26.61;29.37;98596.50;4931761;29;20049;-73
2022/08/11 11:37:21;;;;;;;2.97;2.05;;;;;;;26.47;29.73;98588.75;4919227;29;20070;-72
2022/08/11 11:39:48;;;;;;;4.47;1.70;;;;;;;26.79;28.60;98595.34;4914149;29;20054;-72
2022/08/11 11:42:16;;;;;;;2.03;1.77;;;;;;;27.06;28.03;98598.06;4922717;29;20044;-72
2022/08/11 11:44:43;;;;;;;3.83;2.00;;;;;;;27.05;27.26;98588.28;4915220;29;20130;-72
2022/08/11 11:47:11;;;;;;;4.00;1.85;;;;;;;26.80;29.59;98572.56;4920869;29;20154;-72
2022/08/11 11:49:42;;;;;;;3.33;1.83;;;;;;;27.20;26.71;98582.19;4924855;29;20048;-73
2022/08/11 11:52:14;;;;;;;2.42;1.55;;;;;;;27.35;26.71;98577.69;4924436;29;20044;-73
2022/08/11 11:54:41;;;;;;;2.65;1.75;;;;;;;27.36;26.27;98573.91;4919421;29;20067;-72
2022/08/11 12:02:39;;;;;;;4.55;1.65;;;;;;;27.25;26.64;98568.63;4920406;29;20050;-72
2022/08/11 12:05:07;;;;;;;4.15;2.10;;;;;;;27.12;27.53;98573.41;4922222;29;20136;-73
2022/08/11 12:10:40;;;;;;;2.20;1.50;;;;;;;27.24;26.95;98572.44;4917942;29;20055;-72
2022/08/11 12:15:52;;;;;;;3.08;1.70;;;;;;;27.04;27.27;98563.03;4931370;28;20044;-73
2022/08/11 12:18:40;;;;;;;3.10;1.92;;;;;;;27.03;27.47;98560.56;4917748;29;20046;-72
2022/08/11 12:21:07;;;;;;;1.65;1.50;;;;;;;26.83;29.66;98556.59;4927230;29;20047;-73
2022/08/11 12:29:09;;;;;;;2.38;1.65;;;;;;;27.34;26.10;98551.59;4920118;29;20048;-73
2022/08/11 12:31:37;;;;;;;1.98;1.65;;;;;;;27.29;26.58;98550.75;4917345;29;20499;-73
2022/08/11 12:34:11;;;;;;;3.75;1.75;;;;;;;26.95;27.85;98550.97;4917121;29;20508;-73
2022/08/11 12:37:04;;;;;;;5.32;1.70;;;;;;;27.00;27.62;98550.22;4922980;29;20035;-73
2022/08/11 12:45:30;;;;;;;1.67;1.30;;;;;;;26.89;26.73;98538.44;4915015;29;20110;-73
2022/08/11 12:54:36;;;;;;;3.78;1.58;;;;;;;27.04;25.94;98516.03;4921823;29;20054;-72
2022/08/11 13:05:36;;;;;;;4.13;2.00;;;;;;;26.58;28.08;98521.88;4919637;29;20047;-72
2022/08/11 13:08:13;;;;;;;6.43;1.70;;;;;;;26.65;27.73;98513.53;4918574;29;20410;-72
2022/08/11 13:13:28;;;;;;;3.47;1.60;;;;;;;26.82;27.24;98502.56;4921502;29;20790;-72
2022/08/11 13:16:16;;;;;;;2.58;1.70;;;;;;;26.61;27.89;98493.41;4923867;29;20044;-72
2022/08/11 13:18:48;;;;;;;2.58;1.60;;;;;;;26.60;28.39;98483.63;4918708;29;20048;-72
2022/08/11 13:21:20;;;;;;;2.22;1.73;;;;;;;26.90;25.95;98496.66;4916708;29;20056;-73
2022/08/11 13:23:51;;;;;;;3.72;1.25;;;;;;;26.86;27.46;98493.63;4924779;29;20054;-72
2022/08/11 13:26:37;;;;;;;2.33;1.30;;;;;;;26.98;26.44;98493.44;4918288;29;20104;-73
2022/08/11 13:29:21;;;;;;;1.77;1.50;;;;;;;27.26;25.97;98499.66;4920398;29;20058;-73
2022/08/11 13:31:49;;;;;;;3.30;1.77;;;;;;;27.04;26.91;98505.16;4919921;29;20044;-74
2022/08/11 13:34:17;;;;;;;2.60;1.50;;;;;;;26.90;27.21;98492.03;4920718;29;20047;-72
2022/08/11 13:36:48;;;;;;;2.40;1.40;;;;;;;27.07;24.50;98493.81;4916405;29;20052;-73
2022/08/11 13:39:15;;;;;;;1.65;1.48;;;;;;;27.17;26.02;98495.75;4920740;29;20058;-72
2022/08/11 13:41:42;;;;;;;4.30;1.80;;;;;;;27.23;24.86;98495.56;4953404;28;20051;-73
2022/08/11 13:44:12;;;;;;;2.15;1.83;;;;;;;27.02;27.45;98493.75;4923875;29;20050;-72
2022/08/11 13:46:45;;;;;;;2.28;1.50;;;;;;;27.39;23.79;98498.41;4947526;28;20044;-73
2022/08/11 13:49:15;;;;;;;1.70;1.60;;;;;;;27.65;23.38;98488.47;4920932;29;20744;-72
2022/08/11 13:51:43;;;;;;;3.88;1.60;;;;;;;27.80;24.14;98485.81;4916799;29;20056;-73
2022/08/11 13:54:19;;;;;;;2.63;1.35;;;;;;;27.93;23.12;98479.13;4914420;29;20056;-73
2022/08/11 13:56:52;;;;;;;4.82;2.05;;;;;;;27.61;25.82;98476.50;4937852;28;20047;-73
2022/08/11 13:59:21;;;;;;;4.57;1.50;;;;;;;27.49;25.33;98469.38;4949932;28;20122;-72
2022/08/11 14:01:59;;;;;;;2.28;1.48;;;;;;;27.62;23.39;98465.38;4923574;29;20516;-73
2022/08/11 14:04:57;;;;;;;2.50;1.23;;;;;;;27.67;23.39;98472.72;4923231;29;20050;-74
2022/08/11 14:07:34;;;;;;;1.67;1.40;;;;;;;27.70;25.21;98462.16;4904883;29;20121;-72
2022/08/11 14:10:02;;;;;;;1.30;1.20;;;;;;;27.44;25.25;98457.69;4915831;29;20047;-72
2022/08/11 14:15:35;;;;;;;2.40;1.40;;;;;;;27.75;24.04;98456.75;4917799;29;20054;-73
2022/08/11 14:18:12;;;;;;;3.97;1.60;;;;;;;27.81;23.83;98452.16;4919339;29;20040;-73
2022/08/11 14:23:30;;;;;;;5.25;1.60;;;;;;;27.60;25.00;98445.78;4924410;29;20051;-73
2022/08/11 14:28:43;;;;;;;1.50;1.40;;;;;;;27.87;23.66;98444.84;4912339;29;20094;-73
2022/08/11 14:31:15;;;;;;;1.63;1.33;;;;;;;27.78;25.30;98444.53;4912129;29;20044;-72
2022/08/11 14:33:43;;;;;;;3.63;1.60;;;;;;;27.44;25.78;98436.75;4917858;29;20043;-72
2022/08/11 14:36:33;;;;;;;1.77;1.42;;;;;;;27.50;24.96;98441.13;4920676;29;20078;-72
2022/08/11 14:39:15;;;;;;;6.35;1.55;;;;;;;27.45;26.23;98440.28;4919133;29;20300;-73
2022/08/11 14:47:26;;;;;;;1.60;1.15;;;;;;;27.75;24.54;98434.16;4917974;29;20048;-73
2022/08/11 14:49:54;;;;;;;3.15;1.30;;;;;;;27.89;23.17;98420.94;4924901;29;20059;-73
2022/08/11 14:52:37;;;;;;;2.22;2.05;;;;;;;27.85;25.57;98417.09;4920737;29;20059;-72
2022/08/11 14:57:51;;;;;;;3.70;1.52;;;;;;;27.75;24.64;98415.13;4932784;29;20047;-73
2022/08/11 15:00:21;;;;;;;;;;;;;;;28.18;24.95;98402.22;4918908;29;20048;-73
2022/08/11 15:05:35;;;;;;;1.50;1.35;;;;;;;28.30;23.72;98413.66;4919894;29;20131;-72
2022/08/11 15:08:03;;;;;;;3.35;1.77;;;;;;;27.99;25.17;98405.47;4922538;29;20055;-73
2022/08/11 15:10:30;;;;;;;2.65;1.95;;;;;;;28.20;24.12;98403.59;4925237;29;20044;-73
2022/08/11 15:12:56;;;;;;;4.05;2.80;;;;;;;28.23;24.56;98410.41;4923664;29;20056;-73
2022/08/11 15:18:15;;;;;;;1.33;1.23;;;;;;;28.34;24.24;98400.34;4915747;29;20059;-73
2022/08/11 15:37:43;;;;;;;2.30;1.42;;;;;;;28.68;22.67;98387.03;4920842;29;20060;-73
2022/08/11 15:46:17;;;;;;;3.53;1.77;;;;;;;28.55;23.31;98384.88;4936083;28;20066;-73
2022/08/11 15:48:47;;;;;;;4.00;1.60;;;;;;;28.76;23.31;98381.03;4919889;29;20056;-73
2022/08/11 15:51:32;;;;;;;1.63;1.30;;;;;;;28.54;24.66;98383.22;4923961;29;20135;-73
2022/08/11 15:54:03;;;;;;;4.75;1.50;;;;;;;28.77;22.89;98382.66;4920902;29;20051;-73
2022/08/11 15:56:40;;;;;;;4.22;1.77;;;;;;;28.72;23.11;98381.84;4922006;29;20052;-73
2022/08/11 16:04:58;;;;;;;1.55;1.45;;;;;;;28.40;25.61;98378.28;4921912;29;20071;-73
2022/08/11 16:07:27;;;;;;;4.22;1.63;;;;;;;28.53;23.80;98376.97;4916176;29;20044;-73
2022/08/11 16:10:06;;;;;;;1.42;1.30;;;;;;;28.40;22.87;98381.00;4923117;29;20058;-73
2022/08/11 16:12:39;;;;;;;2.80;1.73;;;;;;;28.26;22.25;98377.22;4925490;29;20123;-73
2022/08/11 16:18:01;;;;;;;1.88;1.70;;;;;;;28.20;23.25;98373.69;4925565;29;20052;-73
2022/08/11 16:20:29;;;;;;;4.18;1.70;;;;;;;28.00;25.77;98368.19;4921410;29;20040;-73
2022/08/11 16:22:59;;;;;;;5.22;1.63;;;;;;;27.90;23.86;98360.03;4917395;29;20052;-73
2022/08/11 16:25:29;;;;;;;4.45;1.70;;;;;;;27.75;23.51;98358.03;4922126;29;20052;-74
2022/08/11 16:28:19;;;;;;;3.28;1.45;;;;;;;27.88;25.64;98360.28;4918357;29;20058;-73
2022/08/11 16:30:47;;;;;;;2.05;1.50;;;;;;;28.60;25.03;98368.53;4920741;29;20095;-73
2022/08/11 16:33:14;;;;;;;4.38;1.73;;;;;;;29.72;21.82;98357.34;4928685;29;20049;-74
2022/08/11 16:38:48;;;;;;;2.25;1.88;;;;;;;31.14;21.80;98350.19;4915020;29;20507;-73
2022/08/11 16:46:58;;;;;;;3.42;1.50;;;;;;;30.92;20.06;98351.53;4931056;28;20054;-73
2022/08/11 16:47:05;;;;;;;3.17;1.50;;;;;;;28.41;24.20;98352.72;4924052;29;20798;-74
2022/08/11 16:49:35;;;;;;;1.90;1.70;;;;;;;27.78;25.58;98361.06;4923850;29;20136;-73
2022/08/11 16:52:04;;;;;;;3.13;1.70;;;;;;;27.38;24.80;98353.56;4923490;29;20536;-73
2022/08/11 16:54:35;;;;;;;2.92;1.38;;;;;;;27.15;25.10;98349.38;4919690;29;20407;-74
2022/08/11 16:59:52;;;;;;;3.88;1.50;;;;;;;26.95;26.03;98352.78;4936890;28;19942;-73
2022/08/11 17:14:06;;;;;;;4.93;1.87;;;;;;;26.38;27.06;98353.44;4916512;29;20466;-73
2022/08/11 17:16:40;;;;;;;4.35;1.60;;;;;;;26.22;26.09;98349.78;4918775;29;20087;-73
2022/08/11 17:19:13;;;;;;;4.57;1.80;;;;;;;26.19;26.62;98350.31;4916707;29;20530;-73
2022/08/11 17:23:45;;;;;;;2.58;1.77;;;;;;;26.22;25.93;98356.03;4915475;29;20051;-73
2022/08/11 17:24:30;;;;;;;1.95;1.80;;;;;;;26.11;26.21;98361.63;4917960;29;20399;-73
2022/08/11 17:26:58;;;;;;;1.70;1.60;;;;;;;26.00;26.33;98347.16;4926152;29;20067;-73
2022/08/11 17:29:29;;;;;;;1.70;1.45;;;;;;;25.91;28.59;98348.69;4919777;29;20043;-73
2022/08/11 17:37:31;;;;;;;2.10;1.52;;;;;;;25.56;26.90;98331.75;4912611;29;20506;-73
2022/08/11 17:40:01;;;;;;;1.55;1.45;;;;;;;25.51;29.44;98333.59;4917711;29;20048;-73
2022/08/11 17:50:50;;;;;;;4.13;1.75;;;;;;;25.08;29.06;98327.09;4916135;29;20056;-74
2022/08/11 18:01:38;;;;;;;2.00;1.40;;;;;;;24.85;29.85;98330.84;4925491;29;20131;-73
2022/08/11 18:04:09;;;;;;;4.57;1.92;;;;;;;24.83;29.22;98328.41;4913652;29;20048;-73
2022/08/11 18:06:36;;;;;;;2.05;1.80;;;;;;;24.88;28.69;98341.16;4919454;28;20052;-73
